sensor_id;sensor_type;location;lat;lon;timestamp;P1;durP1;ratioP1;P2;durP2;ratioP2
739;SDS011;354;42.694;23.336;2023-11-22T00:00:58;59.43;;;42.77;;
739;SDS011;354;42.694;23.336;2023-11-22T00:03:23;58.40;;;37.63;;
739;SDS011;354;42.694;23.336;2023-11-22T00:05:49;58.50;;;40.50;;
739;SDS011;354;42.694;23.336;2023-11-22T00:08:15;53.50;;;37.60;;
739;SDS011;354;42.694;23.336;2023-11-22T00:10:41;50.90;;;39.43;;
739;SDS011;354;42.694;23.336;2023-11-22T00:13:06;54.83;;;40.23;;
739;SDS011;354;42.694;23.336;2023-11-22T00:15:31;51.93;;;39.83;;
739;SDS011;354;42.694;23.336;2023-11-22T00:17:57;50.63;;;39.00;;
739;SDS011;354;42.694;23.336;2023-11-22T00:20:23;48.00;;;37.73;;
739;SDS011;354;42.694;23.336;2023-11-22T00:22:48;48.67;;;37.03;;
739;SDS011;354;42.694;23.336;2023-11-22T00:25:15;50.33;;;35.83;;
739;SDS011;354;42.694;23.336;2023-11-22T00:27:40;52.40;;;36.90;;
739;SDS011;354;42.694;23.336;2023-11-22T00:30:06;54.40;;;38.13;;
739;SDS011;354;42.694;23.336;2023-11-22T00:32:32;48.60;;;35.23;;
739;SDS011;354;42.694;23.336;2023-11-22T00:34:57;51.43;;;36.20;;
739;SDS011;354;42.694;23.336;2023-11-22T00:37:23;45.53;;;36.63;;
739;SDS011;354;42.694;23.336;2023-11-22T00:39:48;46.77;;;36.47;;
739;SDS011;354;42.694;23.336;2023-11-22T00:42:14;45.50;;;34.47;;
739;SDS011;354;42.694;23.336;2023-11-22T00:44:39;43.90;;;34.40;;
739;SDS011;354;42.694;23.336;2023-11-22T00:47:04;42.43;;;33.53;;
739;SDS011;354;42.694;23.336;2023-11-22T00:49:31;48.80;;;33.73;;
739;SDS011;354;42.694;23.336;2023-11-22T00:51:57;46.57;;;34.90;;
739;SDS011;354;42.694;23.336;2023-11-22T00:54:23;49.90;;;37.07;;
739;SDS011;354;42.694;23.336;2023-11-22T00:56:50;43.10;;;33.03;;
739;SDS011;354;42.694;23.336;2023-11-22T00:59:15;45.37;;;34.13;;
739;SDS011;354;42.694;23.336;2023-11-22T01:01:40;45.83;;;34.37;;
739;SDS011;354;42.694;23.336;2023-11-22T01:04:06;42.77;;;34.73;;
739;SDS011;354;42.694;23.336;2023-11-22T01:06:32;46.23;;;32.57;;
739;SDS011;354;42.694;23.336;2023-11-22T01:08:58;42.47;;;32.40;;
739;SDS011;354;42.694;23.336;2023-11-22T01:11:23;40.67;;;29.70;;
739;SDS011;354;42.694;23.336;2023-11-22T01:13:49;40.40;;;28.80;;
739;SDS011;354;42.694;23.336;2023-11-22T01:16:14;39.23;;;29.97;;
739;SDS011;354;42.694;23.336;2023-11-22T01:18:40;41.73;;;31.17;;
739;SDS011;354;42.694;23.336;2023-11-22T01:21:06;40.30;;;32.00;;
739;SDS011;354;42.694;23.336;2023-11-22T01:23:31;38.20;;;30.73;;
739;SDS011;354;42.694;23.336;2023-11-22T01:25:57;38.13;;;30.97;;
739;SDS011;354;42.694;23.336;2023-11-22T01:28:24;38.27;;;29.93;;
739;SDS011;354;42.694;23.336;2023-11-22T01:30:49;43.73;;;31.17;;
739;SDS011;354;42.694;23.336;2023-11-22T01:33:15;39.70;;;29.20;;
739;SDS011;354;42.694;23.336;2023-11-22T01:35:40;40.80;;;31.90;;
739;SDS011;354;42.694;23.336;2023-11-22T01:38:06;37.60;;;29.97;;
739;SDS011;354;42.694;23.336;2023-11-22T01:40:33;41.90;;;31.87;;
739;SDS011;354;42.694;23.336;2023-11-22T01:42:59;43.13;;;30.97;;
739;SDS011;354;42.694;23.336;2023-11-22T01:45:24;41.40;;;30.33;;
739;SDS011;354;42.694;23.336;2023-11-22T01:47:53;39.00;;;29.20;;
739;SDS011;354;42.694;23.336;2023-11-22T01:50:19;39.93;;;31.80;;
739;SDS011;354;42.694;23.336;2023-11-22T01:52:45;42.00;;;31.67;;
739;SDS011;354;42.694;23.336;2023-11-22T01:55:11;37.67;;;28.93;;
739;SDS011;354;42.694;23.336;2023-11-22T01:57:38;41.10;;;31.13;;
739;SDS011;354;42.694;23.336;2023-11-22T02:00:04;34.00;;;26.67;;
739;SDS011;354;42.694;23.336;2023-11-22T02:02:32;36.60;;;28.00;;
739;SDS011;354;42.694;23.336;2023-11-22T02:04:59;34.73;;;25.23;;
739;SDS011;354;42.694;23.336;2023-11-22T02:07:26;32.17;;;25.03;;
739;SDS011;354;42.694;23.336;2023-11-22T02:09:52;30.47;;;21.83;;
739;SDS011;354;42.694;23.336;2023-11-22T02:12:18;28.30;;;22.93;;
739;SDS011;354;42.694;23.336;2023-11-22T02:14:44;27.47;;;22.23;;
739;SDS011;354;42.694;23.336;2023-11-22T02:17:10;28.80;;;21.83;;
739;SDS011;354;42.694;23.336;2023-11-22T02:19:35;27.17;;;22.00;;
739;SDS011;354;42.694;23.336;2023-11-22T02:22:02;25.83;;;21.20;;
739;SDS011;354;42.694;23.336;2023-11-22T02:24:27;30.03;;;22.43;;
739;SDS011;354;42.694;23.336;2023-11-22T02:26:52;27.60;;;22.17;;
739;SDS011;354;42.694;23.336;2023-11-22T02:29:18;30.43;;;23.43;;
739;SDS011;354;42.694;23.336;2023-11-22T02:31:45;23.70;;;20.63;;
739;SDS011;354;42.694;23.336;2023-11-22T02:34:10;23.90;;;20.23;;
739;SDS011;354;42.694;23.336;2023-11-22T02:36:36;25.43;;;21.40;;
739;SDS011;354;42.694;23.336;2023-11-22T02:39:02;30.73;;;22.77;;
739;SDS011;354;42.694;23.336;2023-11-22T02:41:27;25.03;;;20.40;;
739;SDS011;354;42.694;23.336;2023-11-22T02:43:54;25.77;;;21.13;;
739;SDS011;354;42.694;23.336;2023-11-22T02:46:20;27.60;;;21.13;;
739;SDS011;354;42.694;23.336;2023-11-22T02:48:46;29.37;;;22.67;;
739;SDS011;354;42.694;23.336;2023-11-22T02:51:11;26.83;;;21.77;;
739;SDS011;354;42.694;23.336;2023-11-22T02:53:37;23.87;;;19.43;;
739;SDS011;354;42.694;23.336;2023-11-22T02:56:02;24.43;;;20.20;;
739;SDS011;354;42.694;23.336;2023-11-22T02:58:30;27.80;;;21.83;;
739;SDS011;354;42.694;23.336;2023-11-22T03:00:56;25.97;;;21.20;;
739;SDS011;354;42.694;23.336;2023-11-22T03:03:22;24.57;;;21.27;;
739;SDS011;354;42.694;23.336;2023-11-22T03:05:49;26.57;;;21.57;;
739;SDS011;354;42.694;23.336;2023-11-22T03:08:15;25.33;;;21.23;;
739;SDS011;354;42.694;23.336;2023-11-22T03:10:41;28.83;;;20.27;;
739;SDS011;354;42.694;23.336;2023-11-22T03:13:07;26.93;;;22.40;;
739;SDS011;354;42.694;23.336;2023-11-22T03:15:33;25.23;;;21.47;;
739;SDS011;354;42.694;23.336;2023-11-22T03:17:59;24.97;;;20.37;;
739;SDS011;354;42.694;23.336;2023-11-22T03:20:26;25.50;;;21.80;;
739;SDS011;354;42.694;23.336;2023-11-22T03:22:52;28.03;;;21.47;;
739;SDS011;354;42.694;23.336;2023-11-22T03:25:17;27.50;;;22.20;;
739;SDS011;354;42.694;23.336;2023-11-22T03:27:42;26.30;;;21.53;;
739;SDS011;354;42.694;23.336;2023-11-22T03:30:09;23.87;;;20.43;;
739;SDS011;354;42.694;23.336;2023-11-22T03:32:37;22.97;;;20.47;;
739;SDS011;354;42.694;23.336;2023-11-22T03:35:04;31.60;;;21.17;;
739;SDS011;354;42.694;23.336;2023-11-22T03:37:33;25.53;;;22.37;;
739;SDS011;354;42.694;23.336;2023-11-22T03:39:59;27.07;;;22.37;;
739;SDS011;354;42.694;23.336;2023-11-22T03:42:25;26.83;;;21.50;;
739;SDS011;354;42.694;23.336;2023-11-22T03:44:51;25.77;;;20.80;;
739;SDS011;354;42.694;23.336;2023-11-22T03:47:18;28.50;;;22.63;;
739;SDS011;354;42.694;23.336;2023-11-22T03:49:44;28.17;;;23.57;;
739;SDS011;354;42.694;23.336;2023-11-22T03:52:12;27.83;;;21.17;;
739;SDS011;354;42.694;23.336;2023-11-22T03:54:39;26.03;;;21.83;;
739;SDS011;354;42.694;23.336;2023-11-22T03:57:04;26.83;;;23.30;;
739;SDS011;354;42.694;23.336;2023-11-22T03:59:30;26.60;;;22.53;;
739;SDS011;354;42.694;23.336;2023-11-22T04:01:56;28.33;;;21.53;;
739;SDS011;354;42.694;23.336;2023-11-22T04:04:22;25.50;;;21.60;;
739;SDS011;354;42.694;23.336;2023-11-22T04:06:47;26.20;;;20.47;;
739;SDS011;354;42.694;23.336;2023-11-22T04:09:13;26.83;;;21.90;;
739;SDS011;354;42.694;23.336;2023-11-22T04:11:38;25.03;;;21.00;;
739;SDS011;354;42.694;23.336;2023-11-22T04:14:04;26.27;;;21.70;;
739;SDS011;354;42.694;23.336;2023-11-22T04:16:31;23.07;;;20.77;;
739;SDS011;354;42.694;23.336;2023-11-22T04:18:57;28.93;;;21.07;;
739;SDS011;354;42.694;23.336;2023-11-22T04:21:22;24.17;;;20.63;;
739;SDS011;354;42.694;23.336;2023-11-22T04:23:49;24.63;;;21.27;;
739;SDS011;354;42.694;23.336;2023-11-22T04:26:14;28.07;;;21.47;;
739;SDS011;354;42.694;23.336;2023-11-22T04:28:40;26.13;;;22.30;;
739;SDS011;354;42.694;23.336;2023-11-22T04:31:06;27.67;;;21.30;;
739;SDS011;354;42.694;23.336;2023-11-22T04:33:33;25.77;;;21.30;;
739;SDS011;354;42.694;23.336;2023-11-22T04:35:59;24.17;;;21.23;;
739;SDS011;354;42.694;23.336;2023-11-22T04:38:24;27.73;;;21.97;;
739;SDS011;354;42.694;23.336;2023-11-22T04:40:50;24.77;;;21.43;;
739;SDS011;354;42.694;23.336;2023-11-22T04:43:15;24.80;;;20.53;;
739;SDS011;354;42.694;23.336;2023-11-22T04:45:41;26.17;;;19.77;;
739;SDS011;354;42.694;23.336;2023-11-22T04:48:06;30.27;;;21.30;;
739;SDS011;354;42.694;23.336;2023-11-22T04:50:32;23.53;;;19.77;;
739;SDS011;354;42.694;23.336;2023-11-22T04:52:57;22.57;;;19.83;;
739;SDS011;354;42.694;23.336;2023-11-22T04:55:23;25.57;;;19.47;;
739;SDS011;354;42.694;23.336;2023-11-22T04:57:48;20.83;;;18.60;;
739;SDS011;354;42.694;23.336;2023-11-22T05:00:14;24.10;;;18.97;;
739;SDS011;354;42.694;23.336;2023-11-22T05:02:40;23.10;;;18.80;;
739;SDS011;354;42.694;23.336;2023-11-22T05:05:06;25.30;;;19.80;;
739;SDS011;354;42.694;23.336;2023-11-22T05:07:35;22.73;;;18.60;;
739;SDS011;354;42.694;23.336;2023-11-22T05:10:00;22.00;;;18.80;;
739;SDS011;354;42.694;23.336;2023-11-22T05:12:28;21.73;;;19.07;;
739;SDS011;354;42.694;23.336;2023-11-22T05:14:54;19.93;;;17.93;;
739;SDS011;354;42.694;23.336;2023-11-22T05:17:20;20.87;;;17.40;;
739;SDS011;354;42.694;23.336;2023-11-22T05:19:45;19.43;;;17.43;;
739;SDS011;354;42.694;23.336;2023-11-22T05:22:11;20.47;;;18.43;;
739;SDS011;354;42.694;23.336;2023-11-22T05:24:36;24.87;;;20.87;;
739;SDS011;354;42.694;23.336;2023-11-22T05:27:03;23.73;;;18.80;;
739;SDS011;354;42.694;23.336;2023-11-22T05:29:29;20.33;;;18.20;;
739;SDS011;354;42.694;23.336;2023-11-22T05:31:54;21.47;;;19.17;;
739;SDS011;354;42.694;23.336;2023-11-22T05:34:20;21.63;;;18.90;;
739;SDS011;354;42.694;23.336;2023-11-22T05:36:46;22.30;;;20.10;;
739;SDS011;354;42.694;23.336;2023-11-22T05:39:11;24.10;;;21.50;;
739;SDS011;354;42.694;23.336;2023-11-22T05:41:37;33.67;;;28.80;;
739;SDS011;354;42.694;23.336;2023-11-22T05:44:03;25.20;;;22.00;;
739;SDS011;354;42.694;23.336;2023-11-22T05:46:28;23.33;;;21.03;;
739;SDS011;354;42.694;23.336;2023-11-22T05:48:54;22.97;;;20.57;;
739;SDS011;354;42.694;23.336;2023-11-22T05:51:20;23.87;;;21.10;;
739;SDS011;354;42.694;23.336;2023-11-22T05:53:45;24.23;;;21.00;;
739;SDS011;354;42.694;23.336;2023-11-22T05:56:11;23.30;;;20.57;;
739;SDS011;354;42.694;23.336;2023-11-22T05:58:37;24.93;;;21.07;;
739;SDS011;354;42.694;23.336;2023-11-22T06:01:06;22.90;;;20.50;;
739;SDS011;354;42.694;23.336;2023-11-22T06:03:32;21.53;;;19.33;;
739;SDS011;354;42.694;23.336;2023-11-22T06:05:59;20.50;;;18.50;;
739;SDS011;354;42.694;23.336;2023-11-22T06:08:25;22.93;;;20.47;;
739;SDS011;354;42.694;23.336;2023-11-22T06:10:50;21.57;;;19.37;;
739;SDS011;354;42.694;23.336;2023-11-22T06:13:18;21.60;;;19.40;;
739;SDS011;354;42.694;23.336;2023-11-22T06:15:44;21.03;;;17.77;;
739;SDS011;354;42.694;23.336;2023-11-22T06:18:10;17.97;;;16.20;;
739;SDS011;354;42.694;23.336;2023-11-22T06:20:35;20.60;;;18.70;;
739;SDS011;354;42.694;23.336;2023-11-22T06:23:01;18.97;;;16.97;;
739;SDS011;354;42.694;23.336;2023-11-22T06:25:26;22.00;;;19.97;;
739;SDS011;354;42.694;23.336;2023-11-22T06:27:52;24.40;;;21.93;;
739;SDS011;354;42.694;23.336;2023-11-22T06:30:17;20.93;;;18.90;;
739;SDS011;354;42.694;23.336;2023-11-22T06:32:43;20.73;;;18.53;;
739;SDS011;354;42.694;23.336;2023-11-22T06:35:09;21.57;;;19.33;;
739;SDS011;354;42.694;23.336;2023-11-22T06:37:39;20.70;;;18.70;;
739;SDS011;354;42.694;23.336;2023-11-22T06:40:05;21.87;;;19.67;;
739;SDS011;354;42.694;23.336;2023-11-22T06:42:31;21.43;;;19.37;;
739;SDS011;354;42.694;23.336;2023-11-22T06:44:56;23.93;;;21.53;;
739;SDS011;354;42.694;23.336;2023-11-22T06:47:25;23.30;;;20.83;;
739;SDS011;354;42.694;23.336;2023-11-22T06:49:52;24.53;;;22.03;;
739;SDS011;354;42.694;23.336;2023-11-22T06:52:17;21.27;;;18.97;;
739;SDS011;354;42.694;23.336;2023-11-22T06:54:43;23.47;;;20.93;;
739;SDS011;354;42.694;23.336;2023-11-22T06:57:08;28.43;;;21.67;;
739;SDS011;354;42.694;23.336;2023-11-22T06:59:34;20.03;;;18.20;;
739;SDS011;354;42.694;23.336;2023-11-22T07:01:59;23.07;;;20.80;;
739;SDS011;354;42.694;23.336;2023-11-22T07:04:25;18.90;;;16.37;;
739;SDS011;354;42.694;23.336;2023-11-22T07:06:50;19.80;;;17.70;;
739;SDS011;354;42.694;23.336;2023-11-22T07:09:15;20.07;;;17.97;;
739;SDS011;354;42.694;23.336;2023-11-22T07:11:41;20.70;;;18.50;;
739;SDS011;354;42.694;23.336;2023-11-22T07:14:09;25.53;;;22.90;;
739;SDS011;354;42.694;23.336;2023-11-22T07:16:34;19.37;;;17.07;;
739;SDS011;354;42.694;23.336;2023-11-22T07:19:00;18.70;;;16.90;;
739;SDS011;354;42.694;23.336;2023-11-22T07:21:28;18.50;;;16.70;;
739;SDS011;354;42.694;23.336;2023-11-22T07:23:56;18.77;;;16.50;;
739;SDS011;354;42.694;23.336;2023-11-22T07:26:24;19.40;;;17.03;;
739;SDS011;354;42.694;23.336;2023-11-22T07:28:51;20.30;;;18.37;;
739;SDS011;354;42.694;23.336;2023-11-22T07:31:17;24.07;;;17.93;;
739;SDS011;354;42.694;23.336;2023-11-22T07:33:42;21.67;;;17.53;;
739;SDS011;354;42.694;23.336;2023-11-22T07:36:08;20.27;;;18.17;;
739;SDS011;354;42.694;23.336;2023-11-22T07:38:34;21.43;;;18.57;;
739;SDS011;354;42.694;23.336;2023-11-22T07:40:59;22.03;;;19.70;;
739;SDS011;354;42.694;23.336;2023-11-22T07:43:25;24.10;;;20.60;;
739;SDS011;354;42.694;23.336;2023-11-22T07:45:50;21.37;;;19.17;;
739;SDS011;354;42.694;23.336;2023-11-22T07:48:16;20.83;;;18.33;;
739;SDS011;354;42.694;23.336;2023-11-22T07:50:42;21.40;;;19.30;;
739;SDS011;354;42.694;23.336;2023-11-22T07:53:14;24.60;;;21.17;;
739;SDS011;354;42.694;23.336;2023-11-22T07:55:39;22.63;;;20.30;;
739;SDS011;354;42.694;23.336;2023-11-22T07:58:07;25.20;;;20.07;;
739;SDS011;354;42.694;23.336;2023-11-22T08:00:33;19.97;;;18.03;;
739;SDS011;354;42.694;23.336;2023-11-22T08:03:07;21.57;;;19.27;;
739;SDS011;354;42.694;23.336;2023-11-22T08:05:32;22.50;;;19.77;;
739;SDS011;354;42.694;23.336;2023-11-22T08:08:04;27.70;;;24.77;;
739;SDS011;354;42.694;23.336;2023-11-22T08:10:33;25.23;;;21.23;;
739;SDS011;354;42.694;23.336;2023-11-22T08:13:00;23.40;;;21.10;;
739;SDS011;354;42.694;23.336;2023-11-22T08:15:25;26.73;;;21.03;;
739;SDS011;354;42.694;23.336;2023-11-22T08:17:51;27.57;;;23.73;;
739;SDS011;354;42.694;23.336;2023-11-22T08:20:16;32.63;;;28.27;;
739;SDS011;354;42.694;23.336;2023-11-22T08:22:43;30.43;;;25.90;;
739;SDS011;354;42.694;23.336;2023-11-22T08:25:10;32.37;;;28.60;;
739;SDS011;354;42.694;23.336;2023-11-22T08:27:40;30.67;;;27.40;;
739;SDS011;354;42.694;23.336;2023-11-22T08:30:07;29.27;;;26.13;;
739;SDS011;354;42.694;23.336;2023-11-22T08:32:38;38.20;;;33.20;;
739;SDS011;354;42.694;23.336;2023-11-22T08:35:08;31.73;;;25.80;;
739;SDS011;354;42.694;23.336;2023-11-22T08:37:34;20.43;;;18.43;;
739;SDS011;354;42.694;23.336;2023-11-22T08:40:02;19.03;;;17.07;;
739;SDS011;354;42.694;23.336;2023-11-22T08:42:29;25.73;;;22.37;;
739;SDS011;354;42.694;23.336;2023-11-22T08:44:55;19.83;;;17.40;;
739;SDS011;354;42.694;23.336;2023-11-22T08:47:21;19.90;;;18.00;;
739;SDS011;354;42.694;23.336;2023-11-22T08:49:46;21.80;;;19.60;;
739;SDS011;354;42.694;23.336;2023-11-22T08:52:13;20.17;;;18.20;;
739;SDS011;354;42.694;23.336;2023-11-22T08:54:38;22.10;;;19.80;;
739;SDS011;354;42.694;23.336;2023-11-22T08:57:04;21.40;;;19.20;;
739;SDS011;354;42.694;23.336;2023-11-22T08:59:31;21.90;;;19.63;;
739;SDS011;354;42.694;23.336;2023-11-22T09:01:57;20.30;;;18.10;;
739;SDS011;354;42.694;23.336;2023-11-22T09:04:23;23.30;;;20.80;;
739;SDS011;354;42.694;23.336;2023-11-22T09:06:51;24.00;;;21.60;;
739;SDS011;354;42.694;23.336;2023-11-22T09:09:16;25.43;;;22.53;;
739;SDS011;354;42.694;23.336;2023-11-22T09:11:42;24.03;;;21.53;;
739;SDS011;354;42.694;23.336;2023-11-22T09:14:07;23.57;;;21.00;;
739;SDS011;354;42.694;23.336;2023-11-22T09:16:38;25.87;;;23.20;;
739;SDS011;354;42.694;23.336;2023-11-22T09:19:04;26.33;;;23.73;;
739;SDS011;354;42.694;23.336;2023-11-22T09:21:31;28.00;;;22.30;;
739;SDS011;354;42.694;23.336;2023-11-22T09:23:57;23.13;;;20.67;;
739;SDS011;354;42.694;23.336;2023-11-22T09:26:23;23.67;;;21.23;;
739;SDS011;354;42.694;23.336;2023-11-22T09:28:49;22.23;;;19.93;;
739;SDS011;354;42.694;23.336;2023-11-22T09:31:14;24.90;;;20.83;;
739;SDS011;354;42.694;23.336;2023-11-22T09:33:43;22.63;;;19.37;;
739;SDS011;354;42.694;23.336;2023-11-22T09:36:08;22.13;;;19.53;;
739;SDS011;354;42.694;23.336;2023-11-22T09:38:34;22.43;;;19.70;;
739;SDS011;354;42.694;23.336;2023-11-22T09:40:59;25.40;;;20.87;;
739;SDS011;354;42.694;23.336;2023-11-22T09:43:25;23.33;;;18.53;;
739;SDS011;354;42.694;23.336;2023-11-22T09:45:51;21.63;;;17.20;;
739;SDS011;354;42.694;23.336;2023-11-22T09:48:20;20.20;;;16.93;;
739;SDS011;354;42.694;23.336;2023-11-22T09:51:02;22.57;;;20.17;;
739;SDS011;354;42.694;23.336;2023-11-22T09:53:34;19.40;;;17.50;;
739;SDS011;354;42.694;23.336;2023-11-22T09:56:05;21.73;;;18.80;;
739;SDS011;354;42.694;23.336;2023-11-22T09:58:33;19.13;;;16.80;;
739;SDS011;354;42.694;23.336;2023-11-22T10:00:59;18.37;;;16.63;;
739;SDS011;354;42.694;23.336;2023-11-22T10:03:28;18.33;;;16.37;;
739;SDS011;354;42.694;23.336;2023-11-22T10:05:54;18.00;;;16.10;;
739;SDS011;354;42.694;23.336;2023-11-22T10:08:22;21.30;;;18.30;;
739;SDS011;354;42.694;23.336;2023-11-22T10:10:48;22.37;;;18.53;;
739;SDS011;354;42.694;23.336;2023-11-22T10:13:16;21.23;;;17.80;;
739;SDS011;354;42.694;23.336;2023-11-22T10:15:45;23.03;;;19.37;;
739;SDS011;354;42.694;23.336;2023-11-22T10:18:11;23.27;;;20.23;;
739;SDS011;354;42.694;23.336;2023-11-22T10:20:37;22.77;;;19.27;;
739;SDS011;354;42.694;23.336;2023-11-22T10:23:07;22.53;;;20.07;;
739;SDS011;354;42.694;23.336;2023-11-22T10:25:43;21.67;;;19.03;;
739;SDS011;354;42.694;23.336;2023-11-22T10:28:09;24.70;;;22.07;;
739;SDS011;354;42.694;23.336;2023-11-22T10:30:34;21.87;;;19.53;;
739;SDS011;354;42.694;23.336;2023-11-22T10:33:00;24.90;;;22.30;;
739;SDS011;354;42.694;23.336;2023-11-22T10:35:27;33.30;;;26.63;;
739;SDS011;354;42.694;23.336;2023-11-22T10:37:53;21.23;;;19.13;;
739;SDS011;354;42.694;23.336;2023-11-22T10:40:18;23.77;;;20.93;;
739;SDS011;354;42.694;23.336;2023-11-22T10:42:44;27.00;;;21.50;;
739;SDS011;354;42.694;23.336;2023-11-22T10:45:14;21.90;;;19.63;;
739;SDS011;354;42.694;23.336;2023-11-22T10:47:41;18.97;;;17.00;;
739;SDS011;354;42.694;23.336;2023-11-22T10:50:08;21.73;;;18.77;;
739;SDS011;354;42.694;23.336;2023-11-22T10:52:35;36.20;;;32.20;;
739;SDS011;354;42.694;23.336;2023-11-22T10:55:05;71.13;;;50.27;;
739;SDS011;354;42.694;23.336;2023-11-22T10:57:36;52.50;;;33.73;;
739;SDS011;354;42.694;23.336;2023-11-22T11:00:11;22.47;;;20.07;;
739;SDS011;354;42.694;23.336;2023-11-22T11:02:41;22.70;;;20.47;;
739;SDS011;354;42.694;23.336;2023-11-22T11:05:15;23.57;;;19.13;;
739;SDS011;354;42.694;23.336;2023-11-22T11:07:48;19.67;;;17.00;;
739;SDS011;354;42.694;23.336;2023-11-22T11:10:17;21.43;;;19.23;;
739;SDS011;354;42.694;23.336;2023-11-22T11:12:46;20.90;;;16.70;;
739;SDS011;354;42.694;23.336;2023-11-22T11:15:11;22.17;;;17.87;;
739;SDS011;354;42.694;23.336;2023-11-22T11:17:38;32.07;;;28.60;;
739;SDS011;354;42.694;23.336;2023-11-22T11:20:04;21.23;;;17.17;;
739;SDS011;354;42.694;23.336;2023-11-22T11:22:32;20.47;;;17.77;;
739;SDS011;354;42.694;23.336;2023-11-22T11:25:03;22.13;;;19.93;;
739;SDS011;354;42.694;23.336;2023-11-22T11:27:33;23.70;;;20.73;;
739;SDS011;354;42.694;23.336;2023-11-22T11:30:00;22.33;;;20.00;;
739;SDS011;354;42.694;23.336;2023-11-22T11:32:30;22.63;;;19.93;;
739;SDS011;354;42.694;23.336;2023-11-22T11:34:57;19.47;;;17.53;;
739;SDS011;354;42.694;23.336;2023-11-22T11:37:25;22.20;;;19.90;;
739;SDS011;354;42.694;23.336;2023-11-22T11:39:50;20.80;;;18.63;;
739;SDS011;354;42.694;23.336;2023-11-22T11:42:16;21.50;;;19.13;;
739;SDS011;354;42.694;23.336;2023-11-22T11:47:26;24.00;;;19.77;;
739;SDS011;354;42.694;23.336;2023-11-22T11:49:51;23.40;;;20.90;;
739;SDS011;354;42.694;23.336;2023-11-22T11:52:17;26.80;;;23.27;;
739;SDS011;354;42.694;23.336;2023-11-22T11:54:42;24.10;;;21.53;;
739;SDS011;354;42.694;23.336;2023-11-22T11:57:09;26.47;;;21.30;;
739;SDS011;354;42.694;23.336;2023-11-22T11:59:35;26.03;;;22.03;;
739;SDS011;354;42.694;23.336;2023-11-22T12:02:01;22.80;;;20.47;;
739;SDS011;354;42.694;23.336;2023-11-22T12:04:26;27.57;;;22.87;;
739;SDS011;354;42.694;23.336;2023-11-22T12:06:52;25.00;;;22.27;;
739;SDS011;354;42.694;23.336;2023-11-22T12:09:24;27.43;;;22.17;;
739;SDS011;354;42.694;23.336;2023-11-22T12:11:50;24.50;;;21.80;;
739;SDS011;354;42.694;23.336;2023-11-22T12:14:18;28.83;;;23.37;;
739;SDS011;354;42.694;23.336;2023-11-22T12:16:44;23.87;;;21.17;;
739;SDS011;354;42.694;23.336;2023-11-22T12:19:20;23.17;;;20.00;;
739;SDS011;354;42.694;23.336;2023-11-22T12:21:47;35.97;;;25.40;;
739;SDS011;354;42.694;23.336;2023-11-22T12:24:13;22.57;;;20.37;;
739;SDS011;354;42.694;23.336;2023-11-22T12:26:40;22.13;;;19.73;;
739;SDS011;354;42.694;23.336;2023-11-22T12:29:10;20.00;;;18.00;;
739;SDS011;354;42.694;23.336;2023-11-22T12:31:43;20.80;;;18.60;;
739;SDS011;354;42.694;23.336;2023-11-22T12:34:11;20.63;;;18.53;;
739;SDS011;354;42.694;23.336;2023-11-22T12:36:37;21.63;;;19.23;;
739;SDS011;354;42.694;23.336;2023-11-22T12:39:08;20.57;;;18.53;;
739;SDS011;354;42.694;23.336;2023-11-22T12:41:45;21.80;;;19.17;;
739;SDS011;354;42.694;23.336;2023-11-22T12:44:15;21.00;;;18.80;;
739;SDS011;354;42.694;23.336;2023-11-22T12:46:51;21.93;;;17.53;;
739;SDS011;354;42.694;23.336;2023-11-22T12:49:24;22.53;;;20.10;;
739;SDS011;354;42.694;23.336;2023-11-22T12:51:55;19.57;;;17.50;;
739;SDS011;354;42.694;23.336;2023-11-22T12:54:22;19.90;;;15.33;;
739;SDS011;354;42.694;23.336;2023-11-22T12:56:51;18.27;;;16.43;;
739;SDS011;354;42.694;23.336;2023-11-22T12:59:23;24.13;;;19.63;;
739;SDS011;354;42.694;23.336;2023-11-22T13:01:49;21.10;;;18.77;;
739;SDS011;354;42.694;23.336;2023-11-22T13:04:15;20.43;;;17.27;;
739;SDS011;354;42.694;23.336;2023-11-22T13:06:41;21.37;;;17.87;;
739;SDS011;354;42.694;23.336;2023-11-22T13:09:07;18.90;;;16.77;;
739;SDS011;354;42.694;23.336;2023-11-22T13:11:39;14.93;;;13.43;;
739;SDS011;354;42.694;23.336;2023-11-22T13:14:05;17.13;;;15.33;;
739;SDS011;354;42.694;23.336;2023-11-22T13:16:31;18.23;;;16.33;;
739;SDS011;354;42.694;23.336;2023-11-22T13:18:57;19.37;;;17.33;;
739;SDS011;354;42.694;23.336;2023-11-22T13:21:22;20.57;;;18.07;;
739;SDS011;354;42.694;23.336;2023-11-22T13:23:48;19.43;;;17.43;;
739;SDS011;354;42.694;23.336;2023-11-22T13:26:15;21.50;;;18.20;;
739;SDS011;354;42.694;23.336;2023-11-22T13:28:41;18.97;;;15.77;;
739;SDS011;354;42.694;23.336;2023-11-22T13:31:07;19.80;;;17.00;;
739;SDS011;354;42.694;23.336;2023-11-22T13:33:33;21.10;;;18.90;;
739;SDS011;354;42.694;23.336;2023-11-22T13:35:59;22.33;;;19.20;;
739;SDS011;354;42.694;23.336;2023-11-22T13:38:24;22.20;;;19.50;;
739;SDS011;354;42.694;23.336;2023-11-22T13:40:50;24.97;;;22.30;;
739;SDS011;354;42.694;23.336;2023-11-22T13:43:16;26.97;;;20.77;;
739;SDS011;354;42.694;23.336;2023-11-22T13:45:43;32.50;;;26.83;;
739;SDS011;354;42.694;23.336;2023-11-22T13:48:10;23.57;;;21.33;;
739;SDS011;354;42.694;23.336;2023-11-22T13:50:36;24.23;;;21.80;;
739;SDS011;354;42.694;23.336;2023-11-22T13:53:02;22.93;;;19.93;;
739;SDS011;354;42.694;23.336;2023-11-22T13:55:29;21.17;;;19.00;;
739;SDS011;354;42.694;23.336;2023-11-22T13:57:55;18.87;;;16.93;;
739;SDS011;354;42.694;23.336;2023-11-22T14:00:28;19.53;;;15.63;;
739;SDS011;354;42.694;23.336;2023-11-22T14:02:58;15.70;;;14.27;;
739;SDS011;354;42.694;23.336;2023-11-22T14:05:30;14.90;;;13.67;;
739;SDS011;354;42.694;23.336;2023-11-22T14:07:56;15.30;;;13.90;;
739;SDS011;354;42.694;23.336;2023-11-22T14:10:22;15.10;;;13.57;;
739;SDS011;354;42.694;23.336;2023-11-22T14:12:48;17.23;;;15.43;;
739;SDS011;354;42.694;23.336;2023-11-22T14:15:13;17.20;;;15.50;;
739;SDS011;354;42.694;23.336;2023-11-22T14:17:39;17.07;;;15.57;;
739;SDS011;354;42.694;23.336;2023-11-22T14:20:09;18.37;;;16.63;;
739;SDS011;354;42.694;23.336;2023-11-22T14:22:36;23.50;;;16.47;;
739;SDS011;354;42.694;23.336;2023-11-22T14:25:02;17.07;;;15.27;;
739;SDS011;354;42.694;23.336;2023-11-22T14:27:29;18.20;;;16.50;;
739;SDS011;354;42.694;23.336;2023-11-22T14:29:56;17.73;;;15.90;;
739;SDS011;354;42.694;23.336;2023-11-22T14:32:21;17.57;;;15.73;;
739;SDS011;354;42.694;23.336;2023-11-22T14:34:47;18.93;;;17.10;;
739;SDS011;354;42.694;23.336;2023-11-22T14:37:13;21.00;;;16.53;;
739;SDS011;354;42.694;23.336;2023-11-22T14:39:39;19.50;;;17.43;;
739;SDS011;354;42.694;23.336;2023-11-22T14:42:05;18.53;;;16.67;;
739;SDS011;354;42.694;23.336;2023-11-22T14:44:32;18.40;;;16.20;;
739;SDS011;354;42.694;23.336;2023-11-22T14:46:58;21.00;;;18.90;;
739;SDS011;354;42.694;23.336;2023-11-22T14:49:24;19.13;;;17.10;;
739;SDS011;354;42.694;23.336;2023-11-22T14:51:49;19.63;;;17.73;;
739;SDS011;354;42.694;23.336;2023-11-22T14:54:15;20.60;;;17.97;;
739;SDS011;354;42.694;23.336;2023-11-22T14:56:40;23.77;;;19.30;;
739;SDS011;354;42.694;23.336;2023-11-22T14:59:06;21.27;;;18.97;;